Maurin, Texas
Current Conditions -  °F | °C
As of 9:15 AM on Thursday 18 Dec 2014 (Local Time) from KT20 Reporting Station
Haze Haze  
Wind Chill: 55°   Ceiling: 400
Heat Index: 55°   Visibility: 4mi
Dew Point: 53°   Wind: 5mph
Humidity: 95%   Direction: 30°NNE
Pressure: 30.11"   Gusts: NA
Location:  29.481°N, 97.4305°W
Report Text: KT20 181515Z AUTO 03004KT 4SM BR OVC004 13/12 A3011 RMK AO2 T01250117
Loading
Personal Weather Stations






























Interactive Weather Map New forecast layout! Learn more

10-Day Weather Forecast

Advertisements
Track Severe Weather on mobile